sensor_id;sensor_type;location;lat;lon;timestamp;pressure;altitude;pressure_sealevel;temperature;humidity
55070;BME280;40967;52.070;8.596;2022-12-18T00:01:47;101894.97;;;-7.67;85.36
55070;BME280;40967;52.070;8.596;2022-12-18T00:04:23;101884.53;;;-7.80;85.74
55070;BME280;40967;52.070;8.596;2022-12-18T00:06:49;101895.34;;;-7.72;86.00
55070;BME280;40967;52.070;8.596;2022-12-18T00:09:15;101899.03;;;-7.74;85.60
55070;BME280;40967;52.070;8.596;2022-12-18T00:11:41;101884.53;;;-7.80;85.42
55070;BME280;40967;52.070;8.596;2022-12-18T00:14:06;101901.81;;;-7.76;85.45
55070;BME280;40967;52.070;8.596;2022-12-18T00:16:32;101892.22;;;-7.77;85.29
55070;BME280;40967;52.070;8.596;2022-12-18T00:19:00;101890.53;;;-7.78;85.75
55070;BME280;40967;52.070;8.596;2022-12-18T00:21:30;101844.66;;;-8.08;85.38
55070;BME280;40967;52.070;8.596;2022-12-18T00:23:56;101879.78;;;-7.86;85.28
55070;BME280;40967;52.070;8.596;2022-12-18T00:26:27;101891.97;;;-7.85;85.45
55070;BME280;40967;52.070;8.596;2022-12-18T00:28:53;101897.97;;;-7.83;85.19
55070;BME280;40967;52.070;8.596;2022-12-18T00:31:21;101897.25;;;-7.96;85.00
55070;BME280;40967;52.070;8.596;2022-12-18T00:33:47;101910.66;;;-7.88;85.28
55070;BME280;40967;52.070;8.596;2022-12-18T00:36:15;101910.91;;;-7.91;85.48
55070;BME280;40967;52.070;8.596;2022-12-18T00:38:42;101900.47;;;-7.92;85.40
55070;BME280;40967;52.070;8.596;2022-12-18T00:41:09;101891.84;;;-7.94;85.06
55070;BME280;40967;52.070;8.596;2022-12-18T00:43:36;101890.41;;;-7.98;85.01
55070;BME280;40967;52.070;8.596;2022-12-18T00:46:01;101885.50;;;-8.03;85.02
55070;BME280;40967;52.070;8.596;2022-12-18T00:48:27;101894.94;;;-8.00;85.06
55070;BME280;40967;52.070;8.596;2022-12-18T00:50:52;101902.03;;;-8.01;85.14
55070;BME280;40967;52.070;8.596;2022-12-18T00:53:18;101896.16;;;-8.04;85.40
55070;BME280;40967;52.070;8.596;2022-12-18T00:55:45;101876.97;;;-8.18;85.05
55070;BME280;40967;52.070;8.596;2022-12-18T00:58:11;101892.50;;;-8.15;85.61
55070;BME280;40967;52.070;8.596;2022-12-18T01:00:37;101899.09;;;-8.20;85.26
55070;BME280;40967;52.070;8.596;2022-12-18T01:03:03;101895.91;;;-8.24;86.08
55070;BME280;40967;52.070;8.596;2022-12-18T01:05:29;101884.84;;;-8.29;86.29
55070;BME280;40967;52.070;8.596;2022-12-18T01:07:55;101891.22;;;-8.20;85.55
55070;BME280;40967;52.070;8.596;2022-12-18T01:10:20;101901.63;;;-8.19;85.69
55070;BME280;40967;52.070;8.596;2022-12-18T01:12:46;101877.81;;;-8.28;85.35
55070;BME280;40967;52.070;8.596;2022-12-18T01:15:13;101893.47;;;-8.16;85.62
55070;BME280;40967;52.070;8.596;2022-12-18T01:17:39;101882.81;;;-8.25;85.48
55070;BME280;40967;52.070;8.596;2022-12-18T01:20:05;101895.38;;;-8.18;85.49
55070;BME280;40967;52.070;8.596;2022-12-18T01:22:31;101880.56;;;-8.19;85.49
55070;BME280;40967;52.070;8.596;2022-12-18T01:24:56;101867.03;;;-8.25;85.28
55070;BME280;40967;52.070;8.596;2022-12-18T01:27:21;101887.38;;;-8.16;85.60
55070;BME280;40967;52.070;8.596;2022-12-18T01:29:47;101882.09;;;-8.16;85.67
55070;BME280;40967;52.070;8.596;2022-12-18T01:32:12;101890.59;;;-8.13;85.57
55070;BME280;40967;52.070;8.596;2022-12-18T01:34:38;101872.53;;;-8.17;85.85
55070;BME280;40967;52.070;8.596;2022-12-18T01:37:04;101887.03;;;-8.11;85.60
55070;BME280;40967;52.070;8.596;2022-12-18T01:39:30;101887.97;;;-8.13;85.86
55070;BME280;40967;52.070;8.596;2022-12-18T01:41:57;101903.78;;;-8.13;85.66
55070;BME280;40967;52.070;8.596;2022-12-18T01:44:51;101902.94;;;-8.13;85.70
55070;BME280;40967;52.070;8.596;2022-12-18T01:49:50;101896.00;;;-8.25;85.57
55070;BME280;40967;52.070;8.596;2022-12-18T01:52:17;101901.38;;;-8.16;85.75
55070;BME280;40967;52.070;8.596;2022-12-18T01:54:43;101878.78;;;-8.29;85.61
55070;BME280;40967;52.070;8.596;2022-12-18T01:57:09;101898.13;;;-8.19;85.94
55070;BME280;40967;52.070;8.596;2022-12-18T01:59:35;101901.13;;;-8.13;86.28
55070;BME280;40967;52.070;8.596;2022-12-18T02:02:02;101856.38;;;-8.35;86.06
55070;BME280;40967;52.070;8.596;2022-12-18T02:04:28;101873.16;;;-8.25;85.71
55070;BME280;40967;52.070;8.596;2022-12-18T02:12:22;101892.63;;;-8.16;86.68
55070;BME280;40967;52.070;8.596;2022-12-18T02:15:03;101899.34;;;-8.12;86.78
55070;BME280;40967;52.070;8.596;2022-12-18T02:17:42;101900.28;;;-8.13;86.71
55070;BME280;40967;52.070;8.596;2022-12-18T02:28:11;101896.47;;;-8.20;86.38
55070;BME280;40967;52.070;8.596;2022-12-18T02:30:39;101882.69;;;-8.35;86.51
55070;BME280;40967;52.070;8.596;2022-12-18T02:33:06;101898.63;;;-8.25;86.67
55070;BME280;40967;52.070;8.596;2022-12-18T02:35:34;101901.50;;;-8.28;86.11
55070;BME280;40967;52.070;8.596;2022-12-18T02:38:03;101892.88;;;-8.30;86.57
55070;BME280;40967;52.070;8.596;2022-12-18T02:40:29;101895.75;;;-8.33;86.73
55070;BME280;40967;52.070;8.596;2022-12-18T02:42:55;101753.34;;;-9.09;85.90
55070;BME280;40967;52.070;8.596;2022-12-18T02:45:20;101865.56;;;-8.40;85.93
55070;BME280;40967;52.070;8.596;2022-12-18T02:47:48;101873.72;;;-8.43;85.94
55070;BME280;40967;52.070;8.596;2022-12-18T02:58:17;101900.25;;;-8.46;85.06
55070;BME280;40967;52.070;8.596;2022-12-18T03:01:19;101878.78;;;-8.53;85.07
55070;BME280;40967;52.070;8.596;2022-12-18T03:03:57;101897.72;;;-8.48;84.63
55070;BME280;40967;52.070;8.596;2022-12-18T03:06:30;101896.41;;;-8.53;84.55
55070;BME280;40967;52.070;8.596;2022-12-18T03:09:00;101898.31;;;-8.55;84.96
55070;BME280;40967;52.070;8.596;2022-12-18T03:11:30;101902.72;;;-8.56;84.88
55070;BME280;40967;52.070;8.596;2022-12-18T03:14:20;101908.22;;;-8.59;84.45
55070;BME280;40967;52.070;8.596;2022-12-18T03:16:49;101917.38;;;-8.64;84.83
55070;BME280;40967;52.070;8.596;2022-12-18T03:19:19;101906.38;;;-8.69;85.11
55070;BME280;40967;52.070;8.596;2022-12-18T03:21:47;101902.78;;;-8.68;85.33
55070;BME280;40967;52.070;8.596;2022-12-18T03:24:15;101894.75;;;-8.67;84.81
55070;BME280;40967;52.070;8.596;2022-12-18T03:26:45;101897.19;;;-8.64;84.85
55070;BME280;40967;52.070;8.596;2022-12-18T03:32:16;101896.28;;;-8.75;84.82
55070;BME280;40967;52.070;8.596;2022-12-18T03:34:47;101899.16;;;-8.78;85.22
55070;BME280;40967;52.070;8.596;2022-12-18T03:37:15;101892.41;;;-8.82;85.27
55070;BME280;40967;52.070;8.596;2022-12-18T03:39:40;101891.72;;;-8.84;85.09
55070;BME280;40967;52.070;8.596;2022-12-18T03:42:10;101902.66;;;-8.90;85.31
55070;BME280;40967;52.070;8.596;2022-12-18T03:44:48;101893.53;;;-8.97;85.00
55070;BME280;40967;52.070;8.596;2022-12-18T03:52:40;101909.69;;;-9.14;85.74
55070;BME280;40967;52.070;8.596;2022-12-18T03:55:09;101899.09;;;-9.25;85.78
55070;BME280;40967;52.070;8.596;2022-12-18T03:57:35;101911.09;;;-9.21;85.71
55070;BME280;40967;52.070;8.596;2022-12-18T04:02:31;101891.94;;;-9.23;86.19
55070;BME280;40967;52.070;8.596;2022-12-18T04:05:00;101877.25;;;-9.26;86.39
55070;BME280;40967;52.070;8.596;2022-12-18T04:07:28;101882.06;;;-9.20;85.99
55070;BME280;40967;52.070;8.596;2022-12-18T04:09:56;101883.66;;;-9.17;85.98
55070;BME280;40967;52.070;8.596;2022-12-18T04:12:28;101889.19;;;-9.09;85.35
55070;BME280;40967;52.070;8.596;2022-12-18T04:14:54;101891.91;;;-9.11;85.64
55070;BME280;40967;52.070;8.596;2022-12-18T04:17:19;101901.34;;;-9.08;84.94
55070;BME280;40967;52.070;8.596;2022-12-18T04:19:45;101890.84;;;-9.08;85.51
55070;BME280;40967;52.070;8.596;2022-12-18T04:22:10;101892.44;;;-9.06;84.76
55070;BME280;40967;52.070;8.596;2022-12-18T04:24:36;101899.69;;;-9.09;85.52
55070;BME280;40967;52.070;8.596;2022-12-18T04:27:02;101896.56;;;-9.14;85.31
55070;BME280;40967;52.070;8.596;2022-12-18T04:29:27;101887.16;;;-9.29;85.69
55070;BME280;40967;52.070;8.596;2022-12-18T04:31:53;101876.31;;;-9.38;85.37
55070;BME280;40967;52.070;8.596;2022-12-18T04:34:19;101885.78;;;-9.35;85.35
55070;BME280;40967;52.070;8.596;2022-12-18T04:36:44;101883.91;;;-9.46;85.39
55070;BME280;40967;52.070;8.596;2022-12-18T04:39:10;101888.84;;;-9.41;85.50
55070;BME280;40967;52.070;8.596;2022-12-18T04:41:35;101907.00;;;-9.38;85.98
55070;BME280;40967;52.070;8.596;2022-12-18T04:44:01;101915.75;;;-9.38;86.23
55070;BME280;40967;52.070;8.596;2022-12-18T04:46:26;101908.50;;;-9.47;86.54
55070;BME280;40967;52.070;8.596;2022-12-18T04:48:52;101916.19;;;-9.44;86.37
55070;BME280;40967;52.070;8.596;2022-12-18T04:51:17;101900.44;;;-9.56;86.54
55070;BME280;40967;52.070;8.596;2022-12-18T04:53:42;101906.09;;;-9.50;86.73
55070;BME280;40967;52.070;8.596;2022-12-18T04:56:13;101896.84;;;-9.55;86.12
55070;BME280;40967;52.070;8.596;2022-12-18T04:58:41;101906.63;;;-9.57;86.00
55070;BME280;40967;52.070;8.596;2022-12-18T05:01:07;101910.94;;;-9.56;86.79
55070;BME280;40967;52.070;8.596;2022-12-18T05:03:33;101884.06;;;-9.72;86.76
55070;BME280;40967;52.070;8.596;2022-12-18T05:06:00;101907.06;;;-9.63;86.59
55070;BME280;40967;52.070;8.596;2022-12-18T05:08:25;101915.91;;;-9.64;86.98
55070;BME280;40967;52.070;8.596;2022-12-18T05:11:04;101909.81;;;-9.65;86.70
55070;BME280;40967;52.070;8.596;2022-12-18T05:13:30;101905.47;;;-9.66;86.47
55070;BME280;40967;52.070;8.596;2022-12-18T05:15:56;101890.78;;;-9.68;86.36
55070;BME280;40967;52.070;8.596;2022-12-18T05:18:23;101901.47;;;-9.59;86.70
55070;BME280;40967;52.070;8.596;2022-12-18T05:20:52;101871.66;;;-9.70;85.98
55070;BME280;40967;52.070;8.596;2022-12-18T05:23:18;101884.91;;;-9.59;86.87
55070;BME280;40967;52.070;8.596;2022-12-18T05:26:04;101879.53;;;-9.58;86.01
55070;BME280;40967;52.070;8.596;2022-12-18T05:28:32;101883.81;;;-9.57;86.09
55070;BME280;40967;52.070;8.596;2022-12-18T05:31:00;101887.94;;;-9.53;86.04
55070;BME280;40967;52.070;8.596;2022-12-18T05:33:30;101892.34;;;-9.53;86.21
55070;BME280;40967;52.070;8.596;2022-12-18T05:35:57;101874.91;;;-9.67;86.24
55070;BME280;40967;52.070;8.596;2022-12-18T05:38:24;101883.09;;;-9.59;86.54
55070;BME280;40967;52.070;8.596;2022-12-18T05:40:51;101867.16;;;-9.68;86.47
55070;BME280;40967;52.070;8.596;2022-12-18T05:43:18;101896.13;;;-9.57;86.28
55070;BME280;40967;52.070;8.596;2022-12-18T05:45:44;101865.78;;;-9.74;86.66
55070;BME280;40967;52.070;8.596;2022-12-18T05:48:13;101890.47;;;-9.64;86.72
55070;BME280;40967;52.070;8.596;2022-12-18T05:50:40;101892.03;;;-9.61;87.00
55070;BME280;40967;52.070;8.596;2022-12-18T05:53:07;101892.84;;;-9.61;86.76
55070;BME280;40967;52.070;8.596;2022-12-18T05:55:33;101882.56;;;-9.64;86.30
55070;BME280;40967;52.070;8.596;2022-12-18T05:57:59;101892.56;;;-9.56;86.21
55070;BME280;40967;52.070;8.596;2022-12-18T06:00:25;101895.06;;;-9.55;86.75
55070;BME280;40967;52.070;8.596;2022-12-18T06:02:50;101886.56;;;-9.58;86.62
55070;BME280;40967;52.070;8.596;2022-12-18T06:05:16;101874.06;;;-9.67;86.45
55070;BME280;40967;52.070;8.596;2022-12-18T06:07:41;101890.78;;;-9.56;86.54
55070;BME280;40967;52.070;8.596;2022-12-18T06:10:06;101864.53;;;-9.68;86.45
55070;BME280;40967;52.070;8.596;2022-12-18T06:12:32;101906.81;;;-9.48;86.29
55070;BME280;40967;52.070;8.596;2022-12-18T06:14:59;101902.31;;;-9.46;86.02
55070;BME280;40967;52.070;8.596;2022-12-18T06:17:31;101891.91;;;-9.47;86.44
55070;BME280;40967;52.070;8.596;2022-12-18T06:19:57;101891.91;;;-9.47;85.87
55070;BME280;40967;52.070;8.596;2022-12-18T06:22:23;101907.00;;;-9.38;86.15
55070;BME280;40967;52.070;8.596;2022-12-18T06:24:48;101905.22;;;-9.38;86.29
55070;BME280;40967;52.070;8.596;2022-12-18T06:27:13;101906.06;;;-9.37;86.64
55070;BME280;40967;52.070;8.596;2022-12-18T06:29:39;101907.34;;;-9.43;85.97
55070;BME280;40967;52.070;8.596;2022-12-18T06:32:04;101916.19;;;-9.44;86.69
55070;BME280;40967;52.070;8.596;2022-12-18T06:34:30;101926.34;;;-9.39;86.58
55070;BME280;40967;52.070;8.596;2022-12-18T06:36:55;101928.13;;;-9.40;86.76
55070;BME280;40967;52.070;8.596;2022-12-18T06:39:20;101920.19;;;-9.51;87.25
55070;BME280;40967;52.070;8.596;2022-12-18T06:41:46;101938.25;;;-9.46;87.65
55070;BME280;40967;52.070;8.596;2022-12-18T06:44:11;101932.34;;;-9.50;87.44
55070;BME280;40967;52.070;8.596;2022-12-18T06:46:39;101898.34;;;-9.76;87.49
55070;BME280;40967;52.070;8.596;2022-12-18T06:49:04;101944.56;;;-9.49;87.83
55070;BME280;40967;52.070;8.596;2022-12-18T06:51:30;101942.75;;;-9.48;88.47
55070;BME280;40967;52.070;8.596;2022-12-18T06:53:55;101941.84;;;-9.47;87.71
55070;BME280;40967;52.070;8.596;2022-12-18T06:56:21;101946.88;;;-9.44;87.46
55070;BME280;40967;52.070;8.596;2022-12-18T06:58:49;101905.28;;;-9.63;87.21
55070;BME280;40967;52.070;8.596;2022-12-18T07:01:15;101935.28;;;-9.42;86.85
55070;BME280;40967;52.070;8.596;2022-12-18T07:03:41;101931.94;;;-9.44;87.21
55070;BME280;40967;52.070;8.596;2022-12-18T07:06:13;101938.47;;;-9.37;87.18
55070;BME280;40967;52.070;8.596;2022-12-18T07:08:40;101937.72;;;-9.39;87.08
55070;BME280;40967;52.070;8.596;2022-12-18T07:11:05;101946.13;;;-9.33;87.65
55070;BME280;40967;52.070;8.596;2022-12-18T07:13:31;101947.59;;;-9.29;87.72
55070;BME280;40967;52.070;8.596;2022-12-18T07:16:24;101951.88;;;-9.28;87.25
55070;BME280;40967;52.070;8.596;2022-12-18T07:18:48;101928.75;;;-9.36;88.16
55070;BME280;40967;52.070;8.596;2022-12-18T07:21:16;101940.09;;;-9.23;88.42
55070;BME280;40967;52.070;8.596;2022-12-18T07:23:42;101926.66;;;-9.31;88.79
55070;BME280;40967;52.070;8.596;2022-12-18T07:26:11;101926.22;;;-9.25;89.46
55070;BME280;40967;52.070;8.596;2022-12-18T07:28:38;101942.16;;;-9.15;90.06
55070;BME280;40967;52.070;8.596;2022-12-18T07:31:08;101940.28;;;-9.13;89.49
55070;BME280;40967;52.070;8.596;2022-12-18T07:33:34;101918.22;;;-9.23;89.41
55070;BME280;40967;52.070;8.596;2022-12-18T07:36:03;101935.63;;;-9.10;89.78
55070;BME280;40967;52.070;8.596;2022-12-18T07:38:30;101927.66;;;-9.08;89.91
55070;BME280;40967;52.070;8.596;2022-12-18T07:41:03;101906.56;;;-9.19;89.53
55070;BME280;40967;52.070;8.596;2022-12-18T07:43:29;101929.97;;;-9.04;89.37
55070;BME280;40967;52.070;8.596;2022-12-18T07:45:55;101930.81;;;-9.03;89.75
55070;BME280;40967;52.070;8.596;2022-12-18T07:48:20;101935.22;;;-9.04;89.41
55070;BME280;40967;52.070;8.596;2022-12-18T07:50:45;101942.53;;;-8.96;89.85
55070;BME280;40967;52.070;8.596;2022-12-18T07:53:11;101936.13;;;-8.92;90.29
55070;BME280;40967;52.070;8.596;2022-12-18T07:55:36;101927.50;;;-8.94;90.04
55070;BME280;40967;52.070;8.596;2022-12-18T07:58:03;101931.06;;;-8.83;91.13
55070;BME280;40967;52.070;8.596;2022-12-18T08:00:29;101940.50;;;-8.80;90.91
55070;BME280;40967;52.070;8.596;2022-12-18T08:02:55;101940.06;;;-8.74;91.56
55070;BME280;40967;52.070;8.596;2022-12-18T08:05:20;101932.91;;;-8.72;91.73
55070;BME280;40967;52.070;8.596;2022-12-18T08:07:46;101938.31;;;-8.63;92.67
55070;BME280;40967;52.070;8.596;2022-12-18T08:10:11;101930.31;;;-8.61;92.67
55070;BME280;40967;52.070;8.596;2022-12-18T08:12:37;101927.56;;;-8.60;92.84
55070;BME280;40967;52.070;8.596;2022-12-18T08:15:02;101934.47;;;-8.46;93.88
55070;BME280;40967;52.070;8.596;2022-12-18T08:17:27;101926.72;;;-8.37;94.38
55070;BME280;40967;52.070;8.596;2022-12-18T08:19:53;101929.41;;;-8.26;94.81
55070;BME280;40967;52.070;8.596;2022-12-18T08:22:18;101913.69;;;-8.16;95.02
55070;BME280;40967;52.070;8.596;2022-12-18T08:24:44;101915.41;;;-8.04;95.15
55070;BME280;40967;52.070;8.596;2022-12-18T08:27:10;101896.28;;;-7.95;96.45
55070;BME280;40967;52.070;8.596;2022-12-18T08:29:35;101890.41;;;-7.76;97.95
55070;BME280;40967;52.070;8.596;2022-12-18T08:32:00;101888.63;;;-7.54;99.03
55070;BME280;40967;52.070;8.596;2022-12-18T08:34:26;101888.84;;;-7.35;99.86
55070;BME280;40967;52.070;8.596;2022-12-18T08:36:51;101894.94;;;-7.12;100.00
55070;BME280;40967;52.070;8.596;2022-12-18T08:39:16;101889.28;;;-6.97;100.00
55070;BME280;40967;52.070;8.596;2022-12-18T08:41:42;101893.44;;;-6.83;100.00
55070;BME280;40967;52.070;8.596;2022-12-18T08:44:07;101889.81;;;-6.71;100.00
55070;BME280;40967;52.070;8.596;2022-12-18T08:46:51;101898.97;;;-6.54;100.00
55070;BME280;40967;52.070;8.596;2022-12-18T08:49:18;101889.03;;;-6.30;99.79
55070;BME280;40967;52.070;8.596;2022-12-18T08:51:43;101891.44;;;-6.07;100.00
55070;BME280;40967;52.070;8.596;2022-12-18T08:54:11;101903.91;;;-5.88;99.46
55070;BME280;40967;52.070;8.596;2022-12-18T08:56:37;101901.63;;;-5.72;98.64
55070;BME280;40967;52.070;8.596;2022-12-18T08:59:03;101892.75;;;-5.61;97.68
55070;BME280;40967;52.070;8.596;2022-12-18T09:01:29;101894.38;;;-5.40;97.05
55070;BME280;40967;52.070;8.596;2022-12-18T09:03:55;101885.63;;;-5.31;96.02
55070;BME280;40967;52.070;8.596;2022-12-18T09:06:23;101892.94;;;-5.14;95.45
55070;BME280;40967;52.070;8.596;2022-12-18T09:08:49;101890.19;;;-5.03;95.21
55070;BME280;40967;52.070;8.596;2022-12-18T09:11:24;101896.19;;;-4.91;94.37
55070;BME280;40967;52.070;8.596;2022-12-18T09:13:50;101863.72;;;-5.03;93.22
55070;BME280;40967;52.070;8.596;2022-12-18T09:16:16;101887.72;;;-4.76;92.77
55070;BME280;40967;52.070;8.596;2022-12-18T09:18:42;101888.97;;;-4.70;92.44
55070;BME280;40967;52.070;8.596;2022-12-18T09:21:12;101890.38;;;-4.66;91.47
55070;BME280;40967;52.070;8.596;2022-12-18T09:23:41;101885.09;;;-4.66;90.93
55070;BME280;40967;52.070;8.596;2022-12-18T09:26:21;101889.00;;;-4.60;90.62
55070;BME280;40967;52.070;8.596;2022-12-18T09:28:46;101895.66;;;-4.56;90.52
55070;BME280;40967;52.070;8.596;2022-12-18T09:31:16;101895.28;;;-4.52;90.79
55070;BME280;40967;52.070;8.596;2022-12-18T09:33:42;101875.19;;;-4.54;90.24
55070;BME280;40967;52.070;8.596;2022-12-18T09:36:09;101887.16;;;-4.41;89.54
55070;BME280;40967;52.070;8.596;2022-12-18T09:38:36;101879.22;;;-4.41;89.45
55070;BME280;40967;52.070;8.596;2022-12-18T09:43:57;101873.53;;;-4.36;89.12
55070;BME280;40967;52.070;8.596;2022-12-18T09:46:27;101888.56;;;-4.27;89.25
55070;BME280;40967;52.070;8.596;2022-12-18T09:48:58;101901.25;;;-4.21;88.94
55070;BME280;40967;52.070;8.596;2022-12-18T09:51:33;101896.22;;;-4.15;88.98
55070;BME280;40967;52.070;8.596;2022-12-18T09:54:09;101899.16;;;-4.08;88.94
55070;BME280;40967;52.070;8.596;2022-12-18T09:56:40;101869.47;;;-4.12;88.74
55070;BME280;40967;52.070;8.596;2022-12-18T09:59:17;101879.03;;;-3.92;88.75
55070;BME280;40967;52.070;8.596;2022-12-18T10:01:43;101874.97;;;-3.86;88.68
55070;BME280;40967;52.070;8.596;2022-12-18T10:04:09;101874.63;;;-3.64;88.64
55070;BME280;40967;52.070;8.596;2022-12-18T10:09:48;101869.47;;;-3.38;88.60
55070;BME280;40967;52.070;8.596;2022-12-18T10:12:19;101889.09;;;-3.22;88.08
55070;BME280;40967;52.070;8.596;2022-12-18T10:17:58;101887.72;;;-2.99;87.53
55070;BME280;40967;52.070;8.596;2022-12-18T10:20:44;101879.53;;;-2.88;86.87
55070;BME280;40967;52.070;8.596;2022-12-18T10:28:29;101827.28;;;-2.52;86.52
55070;BME280;40967;52.070;8.596;2022-12-18T10:30:55;101812.97;;;-2.34;86.25
55070;BME280;40967;52.070;8.596;2022-12-18T10:33:23;101795.75;;;-2.29;85.71
55070;BME280;40967;52.070;8.596;2022-12-18T10:35:52;101806.81;;;-2.08;85.10
55070;BME280;40967;52.070;8.596;2022-12-18T10:40:58;101799.31;;;-1.87;84.80
55070;BME280;40967;52.070;8.596;2022-12-18T10:43:32;101799.03;;;-1.76;84.31
55070;BME280;40967;52.070;8.596;2022-12-18T10:48:31;101789.78;;;-1.64;83.34
55070;BME280;40967;52.070;8.596;2022-12-18T10:50:58;101790.13;;;-1.59;82.99
55070;BME280;40967;52.070;8.596;2022-12-18T10:53:27;101797.69;;;-1.47;82.77
55070;BME280;40967;52.070;8.596;2022-12-18T10:56:23;101805.53;;;-1.37;82.14
55070;BME280;40967;52.070;8.596;2022-12-18T10:58:59;101798.72;;;-1.32;82.05
55070;BME280;40967;52.070;8.596;2022-12-18T11:01:26;101771.94;;;-1.38;81.63
55070;BME280;40967;52.070;8.596;2022-12-18T11:06:22;101782.13;;;-1.18;80.21
55070;BME280;40967;52.070;8.596;2022-12-18T11:09:20;101767.00;;;-1.17;79.58
55070;BME280;40967;52.070;8.596;2022-12-18T11:11:53;101770.00;;;-1.12;79.25
55070;BME280;40967;52.070;8.596;2022-12-18T11:14:42;101765.19;;;-1.08;79.09
55070;BME280;40967;52.070;8.596;2022-12-18T11:17:19;101736.84;;;-1.18;78.18
55070;BME280;40967;52.070;8.596;2022-12-18T11:19:52;101749.03;;;-1.07;78.10
55070;BME280;40967;52.070;8.596;2022-12-18T11:22:37;101749.53;;;-1.11;77.61
55070;BME280;40967;52.070;8.596;2022-12-18T11:25:18;101740.19;;;-1.16;77.25
55070;BME280;40967;52.070;8.596;2022-12-18T11:27:53;101729.03;;;-1.19;77.19
55070;BME280;40967;52.070;8.596;2022-12-18T11:30:21;101736.53;;;-1.15;76.75
55070;BME280;40967;52.070;8.596;2022-12-18T11:32:58;101718.56;;;-1.29;76.62
55070;BME280;40967;52.070;8.596;2022-12-18T11:38:23;101729.22;;;-1.21;75.83
55070;BME280;40967;52.070;8.596;2022-12-18T11:43:26;101718.91;;;-1.24;75.70
55070;BME280;40967;52.070;8.596;2022-12-18T11:46:02;101717.72;;;-1.29;75.45
55070;BME280;40967;52.070;8.596;2022-12-18T11:50:59;101708.56;;;-1.27;75.39
55070;BME280;40967;52.070;8.596;2022-12-18T11:53:27;101706.72;;;-1.26;75.21
55070;BME280;40967;52.070;8.596;2022-12-18T11:56:02;101709.22;;;-1.25;75.31
55070;BME280;40967;52.070;8.596;2022-12-18T11:58:48;101691.44;;;-1.32;75.18
55070;BME280;40967;52.070;8.596;2022-12-18T12:06:24;101701.06;;;-1.23;75.17
55070;BME280;40967;52.070;8.596;2022-12-18T12:23:50;101673.13;;;-1.27;75.19
55070;BME280;40967;52.070;8.596;2022-12-18T12:31:33;101649.47;;;-1.30;74.79
55070;BME280;40967;52.070;8.596;2022-12-18T12:39:38;101662.47;;;-1.27;74.78
55070;BME280;40967;52.070;8.596;2022-12-18T12:42:13;101663.13;;;-1.25;74.63
55070;BME280;40967;52.070;8.596;2022-12-18T12:45:01;101666.63;;;-1.25;74.52
55070;BME280;40967;52.070;8.596;2022-12-18T12:47:33;101665.78;;;-1.25;74.52
55070;BME280;40967;52.070;8.596;2022-12-18T12:50:05;101668.81;;;-1.20;74.65
55070;BME280;40967;52.070;8.596;2022-12-18T12:52:49;101665.13;;;-1.19;74.51
55070;BME280;40967;52.070;8.596;2022-12-18T12:55:20;101673.78;;;-1.17;74.57
55070;BME280;40967;52.070;8.596;2022-12-18T12:57:54;101670.97;;;-1.16;74.72
55070;BME280;40967;52.070;8.596;2022-12-18T13:00:24;101660.31;;;-1.16;74.26
55070;BME280;40967;52.070;8.596;2022-12-18T13:03:15;101659.47;;;-1.16;74.23
55070;BME280;40967;52.070;8.596;2022-12-18T13:05:54;101636.34;;;-1.32;73.80
55070;BME280;40967;52.070;8.596;2022-12-18T13:08:25;101658.00;;;-1.19;74.36
55070;BME280;40967;52.070;8.596;2022-12-18T13:10:52;101637.16;;;-1.23;74.15
55070;BME280;40967;52.070;8.596;2022-12-18T13:13:52;101645.81;;;-1.21;73.94
55070;BME280;40967;52.070;8.596;2022-12-18T13:16:19;101617.03;;;-1.34;74.12
55070;BME280;40967;52.070;8.596;2022-12-18T13:18:53;101638.19;;;-1.24;74.12
55070;BME280;40967;52.070;8.596;2022-12-18T13:21:34;101635.69;;;-1.26;74.15
55070;BME280;40967;52.070;8.596;2022-12-18T13:24:24;101622.88;;;-1.22;74.54
55070;BME280;40967;52.070;8.596;2022-12-18T13:26:50;101606.91;;;-1.22;74.51
55070;BME280;40967;52.070;8.596;2022-12-18T13:32:33;101591.59;;;-1.20;74.35
55070;BME280;40967;52.070;8.596;2022-12-18T13:37:51;101577.28;;;-1.27;74.32
55070;BME280;40967;52.070;8.596;2022-12-18T13:40:57;101573.78;;;-1.28;74.20
55070;BME280;40967;52.070;8.596;2022-12-18T13:43:26;101566.44;;;-1.34;74.14
55070;BME280;40967;52.070;8.596;2022-12-18T13:48:30;101558.31;;;-1.40;74.01
55070;BME280;40967;52.070;8.596;2022-12-18T13:51:09;101538.38;;;-1.60;74.21
55070;BME280;40967;52.070;8.596;2022-12-18T13:53:48;101569.97;;;-1.41;74.28
55070;BME280;40967;52.070;8.596;2022-12-18T13:56:16;101577.28;;;-1.35;74.09
55070;BME280;40967;52.070;8.596;2022-12-18T14:02:12;101563.28;;;-1.37;74.12
55070;BME280;40967;52.070;8.596;2022-12-18T14:04:38;101565.31;;;-1.39;74.00
55070;BME280;40967;52.070;8.596;2022-12-18T14:09:44;101557.97;;;-1.37;73.71
55070;BME280;40967;52.070;8.596;2022-12-18T14:12:40;101564.31;;;-1.38;73.77
55070;BME280;40967;52.070;8.596;2022-12-18T14:18:01;101564.31;;;-1.38;73.67
55070;BME280;40967;52.070;8.596;2022-12-18T14:20:29;101562.66;;;-1.39;73.63
55070;BME280;40967;52.070;8.596;2022-12-18T14:22:56;101564.47;;;-1.40;73.02
55070;BME280;40967;52.070;8.596;2022-12-18T14:25:27;101564.81;;;-1.43;73.35
55070;BME280;40967;52.070;8.596;2022-12-18T14:27:59;101563.81;;;-1.42;72.97
55070;BME280;40967;52.070;8.596;2022-12-18T14:30:30;101557.31;;;-1.47;73.34
55070;BME280;40967;52.070;8.596;2022-12-18T14:33:08;101559.00;;;-1.46;73.30
55070;BME280;40967;52.070;8.596;2022-12-18T14:35:37;101540.69;;;-1.49;73.13
55070;BME280;40967;52.070;8.596;2022-12-18T14:38:32;101553.69;;;-1.46;73.21
55070;BME280;40967;52.070;8.596;2022-12-18T14:41:02;101550.00;;;-1.53;72.60
55070;BME280;40967;52.070;8.596;2022-12-18T14:43:31;101546.66;;;-1.47;72.90
55070;BME280;40967;52.070;8.596;2022-12-18T14:45:57;101540.69;;;-1.49;73.04
55070;BME280;40967;52.070;8.596;2022-12-18T14:48:39;101545.34;;;-1.51;73.15
55070;BME280;40967;52.070;8.596;2022-12-18T14:51:15;101541.00;;;-1.52;73.18
55070;BME280;40967;52.070;8.596;2022-12-18T14:53:44;101541.84;;;-1.52;73.00
55070;BME280;40967;52.070;8.596;2022-12-18T14:56:19;101533.38;;;-1.55;73.30